sensor_id;sensor_type;location;lat;lon;timestamp;temperature;humidity
55213;DHT22;41083;52.932;6.674;2024-01-25T00:01:10;7.90;99.90
55213;DHT22;41083;52.932;6.674;2024-01-25T00:03:35;7.90;99.90
55213;DHT22;41083;52.932;6.674;2024-01-25T00:06:01;7.90;99.90
55213;DHT22;41083;52.932;6.674;2024-01-25T00:08:27;7.90;99.90
55213;DHT22;41083;52.932;6.674;2024-01-25T00:10:53;7.90;99.90
55213;DHT22;41083;52.932;6.674;2024-01-25T00:13:18;7.80;99.90
55213;DHT22;41083;52.932;6.674;2024-01-25T00:15:44;7.80;99.90
55213;DHT22;41083;52.932;6.674;2024-01-25T00:18:10;7.80;99.90
55213;DHT22;41083;52.932;6.674;2024-01-25T00:20:35;7.80;99.90
55213;DHT22;41083;52.932;6.674;2024-01-25T00:23:01;7.80;99.90
55213;DHT22;41083;52.932;6.674;2024-01-25T00:25:27;7.80;99.90
55213;DHT22;41083;52.932;6.674;2024-01-25T00:27:52;7.80;99.90
55213;DHT22;41083;52.932;6.674;2024-01-25T00:30:18;7.70;99.90
55213;DHT22;41083;52.932;6.674;2024-01-25T00:32:44;7.70;99.90
55213;DHT22;41083;52.932;6.674;2024-01-25T00:35:10;7.70;99.90
55213;DHT22;41083;52.932;6.674;2024-01-25T00:37:39;7.70;99.90
55213;DHT22;41083;52.932;6.674;2024-01-25T00:40:06;7.70;99.90
55213;DHT22;41083;52.932;6.674;2024-01-25T00:42:34;7.60;99.90
55213;DHT22;41083;52.932;6.674;2024-01-25T00:45:03;7.60;99.90
55213;DHT22;41083;52.932;6.674;2024-01-25T00:47:29;7.60;99.90
55213;DHT22;41083;52.932;6.674;2024-01-25T00:49:54;7.60;99.90
55213;DHT22;41083;52.932;6.674;2024-01-25T00:52:20;7.60;99.90
55213;DHT22;41083;52.932;6.674;2024-01-25T00:54:46;7.50;99.90
55213;DHT22;41083;52.932;6.674;2024-01-25T00:57:12;7.50;99.90
55213;DHT22;41083;52.932;6.674;2024-01-25T00:59:38;7.50;99.90
55213;DHT22;41083;52.932;6.674;2024-01-25T01:02:05;7.50;99.90
55213;DHT22;41083;52.932;6.674;2024-01-25T01:04:33;7.50;99.90
55213;DHT22;41083;52.932;6.674;2024-01-25T01:06:59;7.40;99.90
55213;DHT22;41083;52.932;6.674;2024-01-25T01:09:24;7.40;99.90
55213;DHT22;41083;52.932;6.674;2024-01-25T01:11:50;7.40;99.90
55213;DHT22;41083;52.932;6.674;2024-01-25T01:14:17;7.40;99.90
55213;DHT22;41083;52.932;6.674;2024-01-25T01:16:43;7.30;99.90
55213;DHT22;41083;52.932;6.674;2024-01-25T01:19:08;7.30;99.90
55213;DHT22;41083;52.932;6.674;2024-01-25T01:21:35;7.30;99.90
55213;DHT22;41083;52.932;6.674;2024-01-25T01:24:01;7.20;99.90
55213;DHT22;41083;52.932;6.674;2024-01-25T01:26:26;7.20;99.90
55213;DHT22;41083;52.932;6.674;2024-01-25T01:28:52;7.20;99.90
55213;DHT22;41083;52.932;6.674;2024-01-25T01:31:18;7.10;99.90
55213;DHT22;41083;52.932;6.674;2024-01-25T01:33:43;7.10;99.90
55213;DHT22;41083;52.932;6.674;2024-01-25T01:36:09;7.10;99.90
55213;DHT22;41083;52.932;6.674;2024-01-25T01:38:34;7.10;99.90
55213;DHT22;41083;52.932;6.674;2024-01-25T01:41:00;7.00;99.90
55213;DHT22;41083;52.932;6.674;2024-01-25T01:43:26;7.00;99.90
55213;DHT22;41083;52.932;6.674;2024-01-25T01:45:51;7.00;99.90
55213;DHT22;41083;52.932;6.674;2024-01-25T01:48:18;7.00;99.90
55213;DHT22;41083;52.932;6.674;2024-01-25T01:50:45;6.90;99.90
55213;DHT22;41083;52.932;6.674;2024-01-25T01:53:11;6.90;99.90
55213;DHT22;41083;52.932;6.674;2024-01-25T01:55:37;6.90;99.90
55213;DHT22;41083;52.932;6.674;2024-01-25T01:58:03;6.90;99.90
55213;DHT22;41083;52.932;6.674;2024-01-25T02:00:30;6.80;99.90
55213;DHT22;41083;52.932;6.674;2024-01-25T02:02:56;6.80;99.90
55213;DHT22;41083;52.932;6.674;2024-01-25T02:05:23;6.80;99.90
55213;DHT22;41083;52.932;6.674;2024-01-25T02:07:49;6.80;99.90
55213;DHT22;41083;52.932;6.674;2024-01-25T02:10:15;6.80;99.90
55213;DHT22;41083;52.932;6.674;2024-01-25T02:12:41;6.80;99.90
55213;DHT22;41083;52.932;6.674;2024-01-25T02:15:06;6.70;99.90
55213;DHT22;41083;52.932;6.674;2024-01-25T02:17:33;6.70;99.90
55213;DHT22;41083;52.932;6.674;2024-01-25T02:19:58;6.70;99.90
55213;DHT22;41083;52.932;6.674;2024-01-25T02:22:26;6.70;99.90
55213;DHT22;41083;52.932;6.674;2024-01-25T02:24:51;6.70;99.90
55213;DHT22;41083;52.932;6.674;2024-01-25T02:27:17;6.70;99.90
55213;DHT22;41083;52.932;6.674;2024-01-25T02:29:42;6.70;99.90
55213;DHT22;41083;52.932;6.674;2024-01-25T02:32:08;6.70;99.90
55213;DHT22;41083;52.932;6.674;2024-01-25T02:34:34;6.70;99.90
55213;DHT22;41083;52.932;6.674;2024-01-25T02:36:59;6.70;99.90
55213;DHT22;41083;52.932;6.674;2024-01-25T02:39:25;6.70;99.90
55213;DHT22;41083;52.932;6.674;2024-01-25T02:41:51;6.60;99.90
55213;DHT22;41083;52.932;6.674;2024-01-25T02:44:16;6.60;99.90
55213;DHT22;41083;52.932;6.674;2024-01-25T02:46:42;6.60;99.90
55213;DHT22;41083;52.932;6.674;2024-01-25T02:49:10;6.60;99.90
55213;DHT22;41083;52.932;6.674;2024-01-25T02:51:36;6.60;99.90
55213;DHT22;41083;52.932;6.674;2024-01-25T02:54:01;6.60;99.90
55213;DHT22;41083;52.932;6.674;2024-01-25T02:56:28;6.60;99.90
55213;DHT22;41083;52.932;6.674;2024-01-25T02:58:59;6.60;99.90
55213;DHT22;41083;52.932;6.674;2024-01-25T03:01:25;6.50;99.90
55213;DHT22;41083;52.932;6.674;2024-01-25T03:03:50;6.50;99.90
55213;DHT22;41083;52.932;6.674;2024-01-25T03:06:16;6.50;99.90
55213;DHT22;41083;52.932;6.674;2024-01-25T03:08:41;6.50;99.90
55213;DHT22;41083;52.932;6.674;2024-01-25T03:11:07;6.40;99.90
55213;DHT22;41083;52.932;6.674;2024-01-25T03:13:33;6.50;99.90
55213;DHT22;41083;52.932;6.674;2024-01-25T03:15:59;6.50;99.90
55213;DHT22;41083;52.932;6.674;2024-01-25T03:18:25;6.50;99.90
55213;DHT22;41083;52.932;6.674;2024-01-25T03:20:51;6.40;99.90
55213;DHT22;41083;52.932;6.674;2024-01-25T03:23:17;6.40;99.90
55213;DHT22;41083;52.932;6.674;2024-01-25T03:25:42;6.40;99.90
55213;DHT22;41083;52.932;6.674;2024-01-25T03:28:08;6.40;99.90
55213;DHT22;41083;52.932;6.674;2024-01-25T03:30:35;6.40;99.90
55213;DHT22;41083;52.932;6.674;2024-01-25T03:33:00;6.40;99.90
55213;DHT22;41083;52.932;6.674;2024-01-25T03:35:26;6.30;99.90
55213;DHT22;41083;52.932;6.674;2024-01-25T03:37:52;6.40;99.90
55213;DHT22;41083;52.932;6.674;2024-01-25T03:40:17;6.30;99.90
55213;DHT22;41083;52.932;6.674;2024-01-25T03:42:43;6.30;99.90
55213;DHT22;41083;52.932;6.674;2024-01-25T03:45:09;6.30;99.90
55213;DHT22;41083;52.932;6.674;2024-01-25T03:47:34;6.30;99.90
55213;DHT22;41083;52.932;6.674;2024-01-25T03:50:00;6.30;99.90
55213;DHT22;41083;52.932;6.674;2024-01-25T03:52:26;6.30;99.90
55213;DHT22;41083;52.932;6.674;2024-01-25T03:54:55;6.30;99.90
55213;DHT22;41083;52.932;6.674;2024-01-25T03:57:21;6.30;99.90
55213;DHT22;41083;52.932;6.674;2024-01-25T03:59:46;6.20;99.90
55213;DHT22;41083;52.932;6.674;2024-01-25T04:02:12;6.20;99.90
55213;DHT22;41083;52.932;6.674;2024-01-25T04:04:38;6.20;99.90
55213;DHT22;41083;52.932;6.674;2024-01-25T04:07:04;6.20;99.90
55213;DHT22;41083;52.932;6.674;2024-01-25T04:09:29;6.20;99.90
55213;DHT22;41083;52.932;6.674;2024-01-25T04:11:56;6.20;99.90
55213;DHT22;41083;52.932;6.674;2024-01-25T04:14:21;6.20;99.90
55213;DHT22;41083;52.932;6.674;2024-01-25T04:16:47;6.20;99.90
55213;DHT22;41083;52.932;6.674;2024-01-25T04:19:13;6.10;99.90
55213;DHT22;41083;52.932;6.674;2024-01-25T04:21:38;6.20;99.90
55213;DHT22;41083;52.932;6.674;2024-01-25T04:24:04;6.10;99.90
55213;DHT22;41083;52.932;6.674;2024-01-25T04:26:30;6.10;99.90
55213;DHT22;41083;52.932;6.674;2024-01-25T04:28:55;6.10;99.90
55213;DHT22;41083;52.932;6.674;2024-01-25T04:31:21;6.10;99.90
55213;DHT22;41083;52.932;6.674;2024-01-25T04:33:47;6.10;99.90
55213;DHT22;41083;52.932;6.674;2024-01-25T04:36:12;6.10;99.90
55213;DHT22;41083;52.932;6.674;2024-01-25T04:38:38;6.10;99.90
55213;DHT22;41083;52.932;6.674;2024-01-25T04:41:04;6.10;99.90
55213;DHT22;41083;52.932;6.674;2024-01-25T04:43:34;6.00;99.90
55213;DHT22;41083;52.932;6.674;2024-01-25T04:46:01;6.10;99.90
55213;DHT22;41083;52.932;6.674;2024-01-25T04:48:26;6.00;99.90
55213;DHT22;41083;52.932;6.674;2024-01-25T04:50:52;6.10;99.90
55213;DHT22;41083;52.932;6.674;2024-01-25T04:53:18;6.10;99.90
55213;DHT22;41083;52.932;6.674;2024-01-25T04:55:43;6.10;99.90
55213;DHT22;41083;52.932;6.674;2024-01-25T04:58:09;6.00;99.90
55213;DHT22;41083;52.932;6.674;2024-01-25T05:00:35;6.00;99.90
55213;DHT22;41083;52.932;6.674;2024-01-25T05:03:02;6.00;99.90
55213;DHT22;41083;52.932;6.674;2024-01-25T05:05:28;6.00;99.90
55213;DHT22;41083;52.932;6.674;2024-01-25T05:07:53;6.00;99.90
55213;DHT22;41083;52.932;6.674;2024-01-25T05:10:19;5.90;99.90
55213;DHT22;41083;52.932;6.674;2024-01-25T05:12:44;5.90;99.90
55213;DHT22;41083;52.932;6.674;2024-01-25T05:15:10;5.90;99.90
55213;DHT22;41083;52.932;6.674;2024-01-25T05:17:36;5.90;99.90
55213;DHT22;41083;52.932;6.674;2024-01-25T05:20:01;5.90;99.90
55213;DHT22;41083;52.932;6.674;2024-01-25T05:22:28;5.90;99.90
55213;DHT22;41083;52.932;6.674;2024-01-25T05:24:54;5.90;99.90
55213;DHT22;41083;52.932;6.674;2024-01-25T05:27:19;5.90;99.90
55213;DHT22;41083;52.932;6.674;2024-01-25T05:29:45;5.90;99.90
55213;DHT22;41083;52.932;6.674;2024-01-25T05:32:10;5.80;99.90
55213;DHT22;41083;52.932;6.674;2024-01-25T05:34:36;5.80;99.90
55213;DHT22;41083;52.932;6.674;2024-01-25T05:37:02;5.90;99.90
55213;DHT22;41083;52.932;6.674;2024-01-25T05:39:28;5.80;99.90
55213;DHT22;41083;52.932;6.674;2024-01-25T05:41:53;5.80;99.90
55213;DHT22;41083;52.932;6.674;2024-01-25T05:44:19;5.80;99.90
55213;DHT22;41083;52.932;6.674;2024-01-25T05:46:45;5.80;99.90
55213;DHT22;41083;52.932;6.674;2024-01-25T05:49:10;5.80;99.90
55213;DHT22;41083;52.932;6.674;2024-01-25T05:51:36;5.80;99.90
55213;DHT22;41083;52.932;6.674;2024-01-25T05:54:02;5.80;99.90
55213;DHT22;41083;52.932;6.674;2024-01-25T05:56:27;5.80;99.90
55213;DHT22;41083;52.932;6.674;2024-01-25T05:58:53;5.70;99.90
55213;DHT22;41083;52.932;6.674;2024-01-25T06:01:18;5.70;99.90
55213;DHT22;41083;52.932;6.674;2024-01-25T06:03:44;5.70;99.90
55213;DHT22;41083;52.932;6.674;2024-01-25T06:06:10;5.70;99.90
55213;DHT22;41083;52.932;6.674;2024-01-25T06:08:35;5.70;99.90
55213;DHT22;41083;52.932;6.674;2024-01-25T06:11:01;5.60;99.90
55213;DHT22;41083;52.932;6.674;2024-01-25T06:13:27;5.60;99.90
55213;DHT22;41083;52.932;6.674;2024-01-25T06:15:52;5.60;99.90
55213;DHT22;41083;52.932;6.674;2024-01-25T06:18:18;5.60;99.90
55213;DHT22;41083;52.932;6.674;2024-01-25T06:20:43;5.50;99.90
55213;DHT22;41083;52.932;6.674;2024-01-25T06:23:09;5.50;99.90
55213;DHT22;41083;52.932;6.674;2024-01-25T06:25:35;5.50;99.90
55213;DHT22;41083;52.932;6.674;2024-01-25T06:28:01;5.50;99.90
55213;DHT22;41083;52.932;6.674;2024-01-25T06:30:29;5.50;99.90
55213;DHT22;41083;52.932;6.674;2024-01-25T06:32:54;5.50;99.90
55213;DHT22;41083;52.932;6.674;2024-01-25T06:35:20;5.50;99.90
55213;DHT22;41083;52.932;6.674;2024-01-25T06:37:46;5.50;99.90
55213;DHT22;41083;52.932;6.674;2024-01-25T06:40:11;5.40;99.90
55213;DHT22;41083;52.932;6.674;2024-01-25T06:42:37;5.40;99.90
55213;DHT22;41083;52.932;6.674;2024-01-25T06:45:03;5.50;99.90
55213;DHT22;41083;52.932;6.674;2024-01-25T06:47:29;5.40;99.90
55213;DHT22;41083;52.932;6.674;2024-01-25T06:49:54;5.40;99.90
55213;DHT22;41083;52.932;6.674;2024-01-25T06:52:20;5.30;99.90
55213;DHT22;41083;52.932;6.674;2024-01-25T06:54:46;5.30;99.90
55213;DHT22;41083;52.932;6.674;2024-01-25T06:57:11;5.30;99.90
55213;DHT22;41083;52.932;6.674;2024-01-25T06:59:39;5.40;99.90
55213;DHT22;41083;52.932;6.674;2024-01-25T07:02:05;5.40;99.90
55213;DHT22;41083;52.932;6.674;2024-01-25T07:04:31;5.30;99.90
55213;DHT22;41083;52.932;6.674;2024-01-25T07:06:58;5.30;99.90
55213;DHT22;41083;52.932;6.674;2024-01-25T07:09:25;5.40;99.90
55213;DHT22;41083;52.932;6.674;2024-01-25T07:11:51;5.30;99.90
55213;DHT22;41083;52.932;6.674;2024-01-25T07:14:17;5.30;99.90
55213;DHT22;41083;52.932;6.674;2024-01-25T07:16:42;5.30;99.90
55213;DHT22;41083;52.932;6.674;2024-01-25T07:19:08;5.40;99.90
55213;DHT22;41083;52.932;6.674;2024-01-25T07:21:34;5.40;99.90
55213;DHT22;41083;52.932;6.674;2024-01-25T07:24:03;5.40;99.90
55213;DHT22;41083;52.932;6.674;2024-01-25T07:26:31;5.40;99.90
55213;DHT22;41083;52.932;6.674;2024-01-25T07:28:57;5.30;99.90
55213;DHT22;41083;52.932;6.674;2024-01-25T07:31:26;5.30;99.90
55213;DHT22;41083;52.932;6.674;2024-01-25T07:33:55;5.30;99.90
55213;DHT22;41083;52.932;6.674;2024-01-25T07:36:21;5.30;99.90
55213;DHT22;41083;52.932;6.674;2024-01-25T07:38:47;5.30;99.90
55213;DHT22;41083;52.932;6.674;2024-01-25T07:41:16;5.30;99.90
55213;DHT22;41083;52.932;6.674;2024-01-25T07:43:42;5.30;99.90
55213;DHT22;41083;52.932;6.674;2024-01-25T07:46:08;5.30;99.90
55213;DHT22;41083;52.932;6.674;2024-01-25T07:48:34;5.30;99.90
55213;DHT22;41083;52.932;6.674;2024-01-25T07:50:59;5.30;99.90
55213;DHT22;41083;52.932;6.674;2024-01-25T07:53:25;5.20;99.90
55213;DHT22;41083;52.932;6.674;2024-01-25T07:55:51;5.20;99.90
55213;DHT22;41083;52.932;6.674;2024-01-25T07:58:16;5.30;99.90
55213;DHT22;41083;52.932;6.674;2024-01-25T08:00:42;5.30;99.90
55213;DHT22;41083;52.932;6.674;2024-01-25T08:03:08;5.30;99.90
55213;DHT22;41083;52.932;6.674;2024-01-25T08:05:34;5.30;99.90
55213;DHT22;41083;52.932;6.674;2024-01-25T08:08:00;5.30;99.90
55213;DHT22;41083;52.932;6.674;2024-01-25T08:10:25;5.30;99.90
55213;DHT22;41083;52.932;6.674;2024-01-25T08:12:51;5.30;99.90
55213;DHT22;41083;52.932;6.674;2024-01-25T08:15:17;5.30;99.90
55213;DHT22;41083;52.932;6.674;2024-01-25T08:17:43;5.40;99.90
55213;DHT22;41083;52.932;6.674;2024-01-25T08:20:09;5.40;99.90
55213;DHT22;41083;52.932;6.674;2024-01-25T08:22:36;5.40;99.90
55213;DHT22;41083;52.932;6.674;2024-01-25T08:25:02;5.50;99.90
55213;DHT22;41083;52.932;6.674;2024-01-25T08:27:27;5.50;99.90
55213;DHT22;41083;52.932;6.674;2024-01-25T08:29:53;5.50;99.90
55213;DHT22;41083;52.932;6.674;2024-01-25T08:32:18;5.50;99.90
55213;DHT22;41083;52.932;6.674;2024-01-25T08:34:44;5.50;99.90
55213;DHT22;41083;52.932;6.674;2024-01-25T08:37:10;5.60;99.90
55213;DHT22;41083;52.932;6.674;2024-01-25T08:39:36;5.60;99.90
55213;DHT22;41083;52.932;6.674;2024-01-25T08:42:01;5.60;99.90
55213;DHT22;41083;52.932;6.674;2024-01-25T08:44:28;5.60;99.90
55213;DHT22;41083;52.932;6.674;2024-01-25T08:46:54;5.70;99.90
55213;DHT22;41083;52.932;6.674;2024-01-25T08:49:20;5.70;99.90
55213;DHT22;41083;52.932;6.674;2024-01-25T08:51:45;5.70;99.90
55213;DHT22;41083;52.932;6.674;2024-01-25T08:54:11;5.70;99.90
55213;DHT22;41083;52.932;6.674;2024-01-25T08:56:36;5.80;99.90
55213;DHT22;41083;52.932;6.674;2024-01-25T08:59:02;5.80;99.90
55213;DHT22;41083;52.932;6.674;2024-01-25T09:01:28;5.80;99.90
55213;DHT22;41083;52.932;6.674;2024-01-25T09:03:53;5.80;99.90
55213;DHT22;41083;52.932;6.674;2024-01-25T09:06:19;5.80;99.90
55213;DHT22;41083;52.932;6.674;2024-01-25T09:08:45;5.80;99.90
55213;DHT22;41083;52.932;6.674;2024-01-25T09:11:10;5.80;99.90
55213;DHT22;41083;52.932;6.674;2024-01-25T09:13:36;5.90;99.90
55213;DHT22;41083;52.932;6.674;2024-01-25T09:16:02;5.90;99.90
55213;DHT22;41083;52.932;6.674;2024-01-25T09:18:27;5.90;99.90
55213;DHT22;41083;52.932;6.674;2024-01-25T09:20:53;5.90;99.90
55213;DHT22;41083;52.932;6.674;2024-01-25T09:23:19;5.90;99.90
55213;DHT22;41083;52.932;6.674;2024-01-25T09:25:45;5.90;99.90
55213;DHT22;41083;52.932;6.674;2024-01-25T09:28:11;5.90;99.90
55213;DHT22;41083;52.932;6.674;2024-01-25T09:30:40;5.90;99.90
55213;DHT22;41083;52.932;6.674;2024-01-25T09:33:09;5.90;99.90
55213;DHT22;41083;52.932;6.674;2024-01-25T09:35:34;5.90;99.90
55213;DHT22;41083;52.932;6.674;2024-01-25T09:38:00;5.90;99.90
55213;DHT22;41083;52.932;6.674;2024-01-25T09:40:26;6.00;99.90
55213;DHT22;41083;52.932;6.674;2024-01-25T09:42:52;5.90;99.90
55213;DHT22;41083;52.932;6.674;2024-01-25T09:45:18;6.00;99.90
55213;DHT22;41083;52.932;6.674;2024-01-25T09:47:47;6.00;99.90
55213;DHT22;41083;52.932;6.674;2024-01-25T09:50:13;6.00;99.90
55213;DHT22;41083;52.932;6.674;2024-01-25T09:52:39;6.00;99.90
55213;DHT22;41083;52.932;6.674;2024-01-25T09:55:11;6.00;99.90
55213;DHT22;41083;52.932;6.674;2024-01-25T09:57:41;6.00;99.90
55213;DHT22;41083;52.932;6.674;2024-01-25T10:00:11;6.00;99.90
55213;DHT22;41083;52.932;6.674;2024-01-25T10:02:37;6.00;99.90
55213;DHT22;41083;52.932;6.674;2024-01-25T10:05:03;6.00;99.90
55213;DHT22;41083;52.932;6.674;2024-01-25T10:07:43;6.10;99.90
55213;DHT22;41083;52.932;6.674;2024-01-25T10:10:10;6.10;99.90
55213;DHT22;41083;52.932;6.674;2024-01-25T10:12:37;6.10;99.90
55213;DHT22;41083;52.932;6.674;2024-01-25T10:15:04;6.10;99.90
55213;DHT22;41083;52.932;6.674;2024-01-25T10:17:30;6.10;99.90
55213;DHT22;41083;52.932;6.674;2024-01-25T10:19:56;6.10;99.90
55213;DHT22;41083;52.932;6.674;2024-01-25T10:22:22;6.10;99.90
55213;DHT22;41083;52.932;6.674;2024-01-25T10:24:48;6.10;99.90
55213;DHT22;41083;52.932;6.674;2024-01-25T10:27:19;6.10;99.90
55213;DHT22;41083;52.932;6.674;2024-01-25T10:29:45;6.10;99.90
55213;DHT22;41083;52.932;6.674;2024-01-25T10:32:10;6.10;99.90
55213;DHT22;41083;52.932;6.674;2024-01-25T10:34:38;6.10;99.90
55213;DHT22;41083;52.932;6.674;2024-01-25T10:37:06;6.20;99.90
55213;DHT22;41083;52.932;6.674;2024-01-25T10:39:33;6.20;99.90
55213;DHT22;41083;52.932;6.674;2024-01-25T10:41:59;6.20;99.90
55213;DHT22;41083;52.932;6.674;2024-01-25T10:44:25;6.30;99.90
55213;DHT22;41083;52.932;6.674;2024-01-25T10:46:51;6.30;99.90
55213;DHT22;41083;52.932;6.674;2024-01-25T10:49:18;6.40;99.90
55213;DHT22;41083;52.932;6.674;2024-01-25T10:51:44;6.40;99.90
55213;DHT22;41083;52.932;6.674;2024-01-25T10:54:12;6.50;99.90
55213;DHT22;41083;52.932;6.674;2024-01-25T10:56:41;6.60;99.90
55213;DHT22;41083;52.932;6.674;2024-01-25T10:59:07;6.60;99.90
55213;DHT22;41083;52.932;6.674;2024-01-25T11:01:34;6.70;99.90
55213;DHT22;41083;52.932;6.674;2024-01-25T11:04:00;6.80;99.90
55213;DHT22;41083;52.932;6.674;2024-01-25T11:06:27;6.80;99.90
55213;DHT22;41083;52.932;6.674;2024-01-25T11:09:04;6.90;99.90
55213;DHT22;41083;52.932;6.674;2024-01-25T11:11:31;6.90;99.90
55213;DHT22;41083;52.932;6.674;2024-01-25T11:13:59;7.00;99.90
55213;DHT22;41083;52.932;6.674;2024-01-25T11:16:29;7.10;99.90
55213;DHT22;41083;52.932;6.674;2024-01-25T11:18:56;7.10;99.90
55213;DHT22;41083;52.932;6.674;2024-01-25T11:21:47;7.10;99.90
55213;DHT22;41083;52.932;6.674;2024-01-25T11:24:19;7.20;99.90
55213;DHT22;41083;52.932;6.674;2024-01-25T11:26:46;7.20;99.90
55213;DHT22;41083;52.932;6.674;2024-01-25T11:29:16;7.30;99.90
55213;DHT22;41083;52.932;6.674;2024-01-25T11:31:46;7.30;99.90
55213;DHT22;41083;52.932;6.674;2024-01-25T11:34:12;7.40;99.90
55213;DHT22;41083;52.932;6.674;2024-01-25T11:36:38;7.40;99.90
55213;DHT22;41083;52.932;6.674;2024-01-25T11:39:04;7.40;99.90
55213;DHT22;41083;52.932;6.674;2024-01-25T11:41:32;7.50;99.90
55213;DHT22;41083;52.932;6.674;2024-01-25T11:43:57;7.50;99.90
55213;DHT22;41083;52.932;6.674;2024-01-25T11:46:23;7.50;99.90
55213;DHT22;41083;52.932;6.674;2024-01-25T11:48:50;7.50;99.90
55213;DHT22;41083;52.932;6.674;2024-01-25T11:51:15;7.50;99.90
55213;DHT22;41083;52.932;6.674;2024-01-25T11:53:41;7.60;99.90
55213;DHT22;41083;52.932;6.674;2024-01-25T11:56:10;7.60;99.90
55213;DHT22;41083;52.932;6.674;2024-01-25T11:58:39;7.60;99.90
55213;DHT22;41083;52.932;6.674;2024-01-25T12:01:06;7.60;99.90
55213;DHT22;41083;52.932;6.674;2024-01-25T12:03:36;7.60;99.90
55213;DHT22;41083;52.932;6.674;2024-01-25T12:06:03;7.50;99.90
55213;DHT22;41083;52.932;6.674;2024-01-25T12:08:32;7.60;99.90
55213;DHT22;41083;52.932;6.674;2024-01-25T12:11:09;7.60;99.90
55213;DHT22;41083;52.932;6.674;2024-01-25T12:13:35;7.60;99.90
55213;DHT22;41083;52.932;6.674;2024-01-25T12:16:02;7.50;99.90
55213;DHT22;41083;52.932;6.674;2024-01-25T12:18:29;7.60;99.90
55213;DHT22;41083;52.932;6.674;2024-01-25T12:21:00;7.60;99.90
55213;DHT22;41083;52.932;6.674;2024-01-25T12:23:34;7.60;99.90
55213;DHT22;41083;52.932;6.674;2024-01-25T12:26:05;7.60;99.90
55213;DHT22;41083;52.932;6.674;2024-01-25T12:28:31;7.60;99.90
55213;DHT22;41083;52.932;6.674;2024-01-25T12:30:58;7.60;99.90
55213;DHT22;41083;52.932;6.674;2024-01-25T12:33:25;7.70;99.90
55213;DHT22;41083;52.932;6.674;2024-01-25T12:35:50;7.70;99.90
55213;DHT22;41083;52.932;6.674;2024-01-25T12:38:16;7.70;99.90
55213;DHT22;41083;52.932;6.674;2024-01-25T12:40:44;7.70;99.90
55213;DHT22;41083;52.932;6.674;2024-01-25T12:43:10;7.80;99.90
55213;DHT22;41083;52.932;6.674;2024-01-25T12:45:36;7.90;99.90
55213;DHT22;41083;52.932;6.674;2024-01-25T12:48:01;7.90;99.90
55213;DHT22;41083;52.932;6.674;2024-01-25T12:50:28;7.90;99.90
55213;DHT22;41083;52.932;6.674;2024-01-25T12:52:54;7.90;99.90
55213;DHT22;41083;52.932;6.674;2024-01-25T12:55:19;8.00;99.90
55213;DHT22;41083;52.932;6.674;2024-01-25T12:57:45;8.00;99.90
55213;DHT22;41083;52.932;6.674;2024-01-25T13:00:11;7.90;99.90
55213;DHT22;41083;52.932;6.674;2024-01-25T13:02:36;7.90;99.90
55213;DHT22;41083;52.932;6.674;2024-01-25T13:05:02;7.90;99.90
55213;DHT22;41083;52.932;6.674;2024-01-25T13:07:28;7.90;99.90
55213;DHT22;41083;52.932;6.674;2024-01-25T13:09:54;7.90;99.90
55213;DHT22;41083;52.932;6.674;2024-01-25T13:12:19;7.90;99.90
55213;DHT22;41083;52.932;6.674;2024-01-25T13:14:45;7.90;99.90
55213;DHT22;41083;52.932;6.674;2024-01-25T13:17:10;7.90;99.90
55213;DHT22;41083;52.932;6.674;2024-01-25T13:19:36;7.90;99.90
55213;DHT22;41083;52.932;6.674;2024-01-25T13:22:02;7.90;99.90
55213;DHT22;41083;52.932;6.674;2024-01-25T13:24:27;7.90;99.90
55213;DHT22;41083;52.932;6.674;2024-01-25T13:26:53;7.90;99.90
55213;DHT22;41083;52.932;6.674;2024-01-25T13:29:19;7.80;99.90
55213;DHT22;41083;52.932;6.674;2024-01-25T13:31:44;7.90;99.90
55213;DHT22;41083;52.932;6.674;2024-01-25T13:34:10;7.90;99.90
55213;DHT22;41083;52.932;6.674;2024-01-25T13:36:35;7.80;99.90
55213;DHT22;41083;52.932;6.674;2024-01-25T13:39:01;7.80;99.90
55213;DHT22;41083;52.932;6.674;2024-01-25T13:41:27;7.80;99.90
55213;DHT22;41083;52.932;6.674;2024-01-25T13:43:52;7.80;99.90
55213;DHT22;41083;52.932;6.674;2024-01-25T13:46:18;7.80;99.90
55213;DHT22;41083;52.932;6.674;2024-01-25T13:48:44;7.80;99.90
55213;DHT22;41083;52.932;6.674;2024-01-25T13:51:11;7.80;99.90
55213;DHT22;41083;52.932;6.674;2024-01-25T13:53:38;7.80;99.90
55213;DHT22;41083;52.932;6.674;2024-01-25T13:56:04;7.80;99.90
55213;DHT22;41083;52.932;6.674;2024-01-25T13:58:29;7.80;99.90
55213;DHT22;41083;52.932;6.674;2024-01-25T14:00:55;7.80;99.90
55213;DHT22;41083;52.932;6.674;2024-01-25T14:03:20;7.80;99.90
55213;DHT22;41083;52.932;6.674;2024-01-25T14:05:46;7.80;99.90
55213;DHT22;41083;52.932;6.674;2024-01-25T14:08:12;7.90;99.90
55213;DHT22;41083;52.932;6.674;2024-01-25T14:10:38;7.90;99.90
55213;DHT22;41083;52.932;6.674;2024-01-25T14:13:04;7.90;99.90
55213;DHT22;41083;52.932;6.674;2024-01-25T14:15:29;7.90;99.90
55213;DHT22;41083;52.932;6.674;2024-01-25T14:17:55;7.90;99.90
55213;DHT22;41083;52.932;6.674;2024-01-25T14:20:21;7.90;99.90
55213;DHT22;41083;52.932;6.674;2024-01-25T14:22:48;7.90;99.90
55213;DHT22;41083;52.932;6.674;2024-01-25T14:25:14;7.90;99.90
55213;DHT22;41083;52.932;6.674;2024-01-25T14:27:39;7.90;99.90
55213;DHT22;41083;52.932;6.674;2024-01-25T14:30:05;7.90;99.90
55213;DHT22;41083;52.932;6.674;2024-01-25T14:32:32;7.90;99.90
55213;DHT22;41083;52.932;6.674;2024-01-25T14:34:58;7.80;99.90
55213;DHT22;41083;52.932;6.674;2024-01-25T14:37:23;7.90;99.90
55213;DHT22;41083;52.932;6.674;2024-01-25T14:39:49;7.80;99.90
55213;DHT22;41083;52.932;6.674;2024-01-25T14:42:15;7.80;99.90
55213;DHT22;41083;52.932;6.674;2024-01-25T14:44:43;7.80;99.90
55213;DHT22;41083;52.932;6.674;2024-01-25T14:47:09;7.80;99.90
55213;DHT22;41083;52.932;6.674;2024-01-25T14:49:35;7.80;99.90
55213;DHT22;41083;52.932;6.674;2024-01-25T14:52:01;7.70;99.90
55213;DHT22;41083;52.932;6.674;2024-01-25T14:54:26;7.80;99.90
55213;DHT22;41083;52.932;6.674;2024-01-25T14:56:52;7.70;99.90
55213;DHT22;41083;52.932;6.674;2024-01-25T14:59:18;7.70;99.90
55213;DHT22;41083;52.932;6.674;2024-01-25T15:01:47;7.70;99.90
55213;DHT22;41083;52.932;6.674;2024-01-25T15:04:13;7.70;99.90
55213;DHT22;41083;52.932;6.674;2024-01-25T15:06:41;7.60;99.90
55213;DHT22;41083;52.932;6.674;2024-01-25T15:09:07;7.60;99.90
55213;DHT22;41083;52.932;6.674;2024-01-25T15:11:33;7.70;99.90
55213;DHT22;41083;52.932;6.674;2024-01-25T15:13:59;7.60;99.90
55213;DHT22;41083;52.932;6.674;2024-01-25T15:16:25;7.70;99.90
55213;DHT22;41083;52.932;6.674;2024-01-25T15:18:50;7.70;99.90
55213;DHT22;41083;52.932;6.674;2024-01-25T15:21:16;7.70;99.90
55213;DHT22;41083;52.932;6.674;2024-01-25T15:23:42;7.60;99.90
55213;DHT22;41083;52.932;6.674;2024-01-25T15:26:08;7.70;99.90
55213;DHT22;41083;52.932;6.674;2024-01-25T15:28:33;7.60;99.90
55213;DHT22;41083;52.932;6.674;2024-01-25T15:31:00;7.60;99.90
55213;DHT22;41083;52.932;6.674;2024-01-25T15:33:26;7.60;99.90
55213;DHT22;41083;52.932;6.674;2024-01-25T15:35:52;7.60;99.90
55213;DHT22;41083;52.932;6.674;2024-01-25T15:38:17;7.60;99.90